sensor_id;sensor_type;location;lat;lon;timestamp;P1;durP1;ratioP1;P2;durP2;ratioP2
53052;SDS011;38934;52.690;6.184;2023-07-09T00:00:54;10.43;;;8.05;;
53052;SDS011;38934;52.690;6.184;2023-07-09T00:03:19;13.10;;;8.75;;
53052;SDS011;38934;52.690;6.184;2023-07-09T00:05:46;13.35;;;8.27;;
53052;SDS011;38934;52.690;6.184;2023-07-09T00:08:29;12.52;;;8.57;;
53052;SDS011;38934;52.690;6.184;2023-07-09T00:10:56;11.40;;;7.45;;
53052;SDS011;38934;52.690;6.184;2023-07-09T00:13:23;11.20;;;7.68;;
53052;SDS011;38934;52.690;6.184;2023-07-09T00:15:50;12.30;;;8.40;;
53052;SDS011;38934;52.690;6.184;2023-07-09T00:18:16;11.70;;;7.97;;
53052;SDS011;38934;52.690;6.184;2023-07-09T00:20:41;10.25;;;8.30;;
53052;SDS011;38934;52.690;6.184;2023-07-09T00:23:09;9.73;;;8.10;;
53052;SDS011;38934;52.690;6.184;2023-07-09T00:25:41;9.40;;;7.75;;
53052;SDS011;38934;52.690;6.184;2023-07-09T00:28:15;12.95;;;8.15;;
53052;SDS011;38934;52.690;6.184;2023-07-09T00:30:43;12.85;;;8.43;;
53052;SDS011;38934;52.690;6.184;2023-07-09T00:33:18;11.52;;;7.75;;
53052;SDS011;38934;52.690;6.184;2023-07-09T00:35:45;11.25;;;8.52;;
53052;SDS011;38934;52.690;6.184;2023-07-09T00:38:17;12.73;;;8.13;;
53052;SDS011;38934;52.690;6.184;2023-07-09T00:41:14;11.65;;;8.40;;
53052;SDS011;38934;52.690;6.184;2023-07-09T00:43:42;11.23;;;8.45;;
53052;SDS011;38934;52.690;6.184;2023-07-09T00:51:30;13.40;;;8.70;;
53052;SDS011;38934;52.690;6.184;2023-07-09T00:53:58;11.38;;;7.63;;
53052;SDS011;38934;52.690;6.184;2023-07-09T00:56:29;11.15;;;8.55;;
53052;SDS011;38934;52.690;6.184;2023-07-09T00:59:03;13.70;;;8.35;;
53052;SDS011;38934;52.690;6.184;2023-07-09T01:01:33;9.90;;;7.90;;
53052;SDS011;38934;52.690;6.184;2023-07-09T01:04:00;17.98;;;8.80;;
53052;SDS011;38934;52.690;6.184;2023-07-09T01:06:30;11.15;;;8.27;;
53052;SDS011;38934;52.690;6.184;2023-07-09T01:09:04;11.40;;;8.75;;
53052;SDS011;38934;52.690;6.184;2023-07-09T01:11:31;11.55;;;8.68;;
53052;SDS011;38934;52.690;6.184;2023-07-09T01:13:59;11.88;;;8.55;;
53052;SDS011;38934;52.690;6.184;2023-07-09T01:16:28;11.52;;;8.82;;
53052;SDS011;38934;52.690;6.184;2023-07-09T01:18:57;10.95;;;8.90;;
53052;SDS011;38934;52.690;6.184;2023-07-09T01:21:23;12.55;;;8.75;;
53052;SDS011;38934;52.690;6.184;2023-07-09T01:23:49;11.93;;;8.25;;
53052;SDS011;38934;52.690;6.184;2023-07-09T01:26:19;11.52;;;9.15;;
53052;SDS011;38934;52.690;6.184;2023-07-09T01:28:50;12.53;;;9.07;;
53052;SDS011;38934;52.690;6.184;2023-07-09T01:31:16;14.02;;;9.90;;
53052;SDS011;38934;52.690;6.184;2023-07-09T01:33:43;12.68;;;9.50;;
53052;SDS011;38934;52.690;6.184;2023-07-09T01:36:13;12.02;;;9.27;;
53052;SDS011;38934;52.690;6.184;2023-07-09T01:38:41;13.35;;;9.43;;
53052;SDS011;38934;52.690;6.184;2023-07-09T01:41:08;11.15;;;8.63;;
53052;SDS011;38934;52.690;6.184;2023-07-09T01:43:39;11.23;;;9.05;;
53052;SDS011;38934;52.690;6.184;2023-07-09T01:46:06;11.13;;;8.77;;
53052;SDS011;38934;52.690;6.184;2023-07-09T01:48:33;11.02;;;8.82;;
53052;SDS011;38934;52.690;6.184;2023-07-09T01:51:06;12.27;;;8.13;;
53052;SDS011;38934;52.690;6.184;2023-07-09T01:53:36;12.27;;;8.65;;
53052;SDS011;38934;52.690;6.184;2023-07-09T01:56:03;12.50;;;9.07;;
53052;SDS011;38934;52.690;6.184;2023-07-09T01:58:29;11.18;;;8.80;;
53052;SDS011;38934;52.690;6.184;2023-07-09T02:00:57;12.52;;;8.93;;
53052;SDS011;38934;52.690;6.184;2023-07-09T02:03:23;10.35;;;8.48;;
53052;SDS011;38934;52.690;6.184;2023-07-09T02:05:52;12.00;;;9.60;;
53052;SDS011;38934;52.690;6.184;2023-07-09T02:08:18;12.32;;;9.50;;
53052;SDS011;38934;52.690;6.184;2023-07-09T02:10:44;13.55;;;9.60;;
53052;SDS011;38934;52.690;6.184;2023-07-09T02:13:13;12.05;;;9.45;;
53052;SDS011;38934;52.690;6.184;2023-07-09T02:15:39;12.35;;;8.75;;
53052;SDS011;38934;52.690;6.184;2023-07-09T02:18:08;12.55;;;9.63;;
53052;SDS011;38934;52.690;6.184;2023-07-09T02:20:34;11.18;;;9.07;;
53052;SDS011;38934;52.690;6.184;2023-07-09T02:23:00;12.48;;;9.15;;
53052;SDS011;38934;52.690;6.184;2023-07-09T02:25:25;11.75;;;8.73;;
53052;SDS011;38934;52.690;6.184;2023-07-09T02:27:51;12.00;;;9.98;;
53052;SDS011;38934;52.690;6.184;2023-07-09T02:30:17;12.88;;;9.70;;
53052;SDS011;38934;52.690;6.184;2023-07-09T02:32:42;11.85;;;9.50;;
53052;SDS011;38934;52.690;6.184;2023-07-09T02:35:08;12.23;;;9.82;;
53052;SDS011;38934;52.690;6.184;2023-07-09T02:37:33;11.88;;;9.48;;
53052;SDS011;38934;52.690;6.184;2023-07-09T02:39:59;14.52;;;10.35;;
53052;SDS011;38934;52.690;6.184;2023-07-09T02:42:25;11.85;;;8.82;;
53052;SDS011;38934;52.690;6.184;2023-07-09T02:44:50;11.85;;;9.30;;
53052;SDS011;38934;52.690;6.184;2023-07-09T02:47:16;13.68;;;9.70;;
53052;SDS011;38934;52.690;6.184;2023-07-09T02:49:43;14.15;;;10.18;;
53052;SDS011;38934;52.690;6.184;2023-07-09T02:52:08;10.93;;;8.45;;
53052;SDS011;38934;52.690;6.184;2023-07-09T02:54:34;15.02;;;9.23;;
53052;SDS011;38934;52.690;6.184;2023-07-09T02:57:00;12.77;;;9.93;;
53052;SDS011;38934;52.690;6.184;2023-07-09T02:59:26;12.07;;;9.45;;
53052;SDS011;38934;52.690;6.184;2023-07-09T03:01:54;13.57;;;10.45;;
53052;SDS011;38934;52.690;6.184;2023-07-09T03:04:20;14.18;;;9.88;;
53052;SDS011;38934;52.690;6.184;2023-07-09T03:06:46;13.27;;;9.82;;
53052;SDS011;38934;52.690;6.184;2023-07-09T03:09:12;12.77;;;10.20;;
53052;SDS011;38934;52.690;6.184;2023-07-09T03:11:37;13.43;;;10.10;;
53052;SDS011;38934;52.690;6.184;2023-07-09T03:14:03;13.70;;;9.90;;
53052;SDS011;38934;52.690;6.184;2023-07-09T03:16:30;14.05;;;10.10;;
53052;SDS011;38934;52.690;6.184;2023-07-09T03:18:57;12.45;;;9.60;;
53052;SDS011;38934;52.690;6.184;2023-07-09T03:21:24;13.50;;;10.32;;
53052;SDS011;38934;52.690;6.184;2023-07-09T03:23:50;14.32;;;11.13;;
53052;SDS011;38934;52.690;6.184;2023-07-09T03:26:16;14.93;;;10.95;;
53052;SDS011;38934;52.690;6.184;2023-07-09T03:28:42;16.35;;;10.23;;
53052;SDS011;38934;52.690;6.184;2023-07-09T03:31:08;16.80;;;11.05;;
53052;SDS011;38934;52.690;6.184;2023-07-09T03:33:34;14.43;;;10.70;;
53052;SDS011;38934;52.690;6.184;2023-07-09T03:36:00;13.00;;;9.65;;
53052;SDS011;38934;52.690;6.184;2023-07-09T03:38:25;14.45;;;10.73;;
53052;SDS011;38934;52.690;6.184;2023-07-09T03:40:54;12.88;;;9.65;;
53052;SDS011;38934;52.690;6.184;2023-07-09T03:43:20;14.27;;;10.77;;
53052;SDS011;38934;52.690;6.184;2023-07-09T03:45:46;14.10;;;9.93;;
53052;SDS011;38934;52.690;6.184;2023-07-09T03:48:12;16.77;;;10.80;;
53052;SDS011;38934;52.690;6.184;2023-07-09T03:50:39;11.90;;;9.77;;
53052;SDS011;38934;52.690;6.184;2023-07-09T03:53:07;14.05;;;10.57;;
53052;SDS011;38934;52.690;6.184;2023-07-09T03:55:32;12.77;;;10.23;;
53052;SDS011;38934;52.690;6.184;2023-07-09T03:57:58;13.73;;;9.73;;
53052;SDS011;38934;52.690;6.184;2023-07-09T04:00:24;15.38;;;10.75;;
53052;SDS011;38934;52.690;6.184;2023-07-09T04:02:50;11.75;;;9.27;;
53052;SDS011;38934;52.690;6.184;2023-07-09T04:05:16;14.02;;;10.80;;
53052;SDS011;38934;52.690;6.184;2023-07-09T04:07:42;14.95;;;10.45;;
53052;SDS011;38934;52.690;6.184;2023-07-09T04:10:09;15.32;;;10.18;;
53052;SDS011;38934;52.690;6.184;2023-07-09T04:12:35;12.40;;;9.95;;
53052;SDS011;38934;52.690;6.184;2023-07-09T04:15:01;13.63;;;9.43;;
53052;SDS011;38934;52.690;6.184;2023-07-09T04:17:31;14.57;;;11.25;;
53052;SDS011;38934;52.690;6.184;2023-07-09T04:19:57;13.00;;;10.57;;
53052;SDS011;38934;52.690;6.184;2023-07-09T04:22:23;16.08;;;11.20;;
53052;SDS011;38934;52.690;6.184;2023-07-09T04:24:48;12.77;;;9.70;;
53052;SDS011;38934;52.690;6.184;2023-07-09T04:27:15;13.30;;;10.13;;
53052;SDS011;38934;52.690;6.184;2023-07-09T04:29:41;12.50;;;10.30;;
53052;SDS011;38934;52.690;6.184;2023-07-09T04:32:12;13.00;;;9.63;;
53052;SDS011;38934;52.690;6.184;2023-07-09T04:34:38;11.75;;;9.77;;
53052;SDS011;38934;52.690;6.184;2023-07-09T04:37:08;13.25;;;9.52;;
53052;SDS011;38934;52.690;6.184;2023-07-09T04:39:36;13.38;;;10.55;;
53052;SDS011;38934;52.690;6.184;2023-07-09T04:42:01;16.42;;;11.05;;
53052;SDS011;38934;52.690;6.184;2023-07-09T04:44:27;13.85;;;10.25;;
53052;SDS011;38934;52.690;6.184;2023-07-09T04:46:53;12.20;;;9.98;;
53052;SDS011;38934;52.690;6.184;2023-07-09T04:49:19;12.98;;;10.10;;
53052;SDS011;38934;52.690;6.184;2023-07-09T04:51:44;12.50;;;9.45;;
53052;SDS011;38934;52.690;6.184;2023-07-09T04:54:10;13.93;;;10.52;;
53052;SDS011;38934;52.690;6.184;2023-07-09T04:56:36;13.52;;;10.20;;
53052;SDS011;38934;52.690;6.184;2023-07-09T04:59:02;11.23;;;9.50;;
53052;SDS011;38934;52.690;6.184;2023-07-09T05:01:28;20.10;;;9.98;;
53052;SDS011;38934;52.690;6.184;2023-07-09T05:03:54;13.57;;;9.98;;
53052;SDS011;38934;52.690;6.184;2023-07-09T05:06:20;14.70;;;10.73;;
53052;SDS011;38934;52.690;6.184;2023-07-09T05:08:46;11.77;;;9.05;;
53052;SDS011;38934;52.690;6.184;2023-07-09T05:11:13;15.80;;;10.40;;
53052;SDS011;38934;52.690;6.184;2023-07-09T05:13:39;12.30;;;8.73;;
53052;SDS011;38934;52.690;6.184;2023-07-09T05:16:05;11.85;;;9.52;;
53052;SDS011;38934;52.690;6.184;2023-07-09T05:18:31;11.80;;;9.07;;
53052;SDS011;38934;52.690;6.184;2023-07-09T05:20:56;13.35;;;10.38;;
53052;SDS011;38934;52.690;6.184;2023-07-09T05:23:23;13.05;;;10.50;;
53052;SDS011;38934;52.690;6.184;2023-07-09T05:25:50;14.68;;;11.10;;
53052;SDS011;38934;52.690;6.184;2023-07-09T05:28:24;11.57;;;9.05;;
53052;SDS011;38934;52.690;6.184;2023-07-09T05:30:50;10.32;;;8.55;;
53052;SDS011;38934;52.690;6.184;2023-07-09T05:33:16;12.73;;;9.18;;
53052;SDS011;38934;52.690;6.184;2023-07-09T05:35:43;11.55;;;9.27;;
53052;SDS011;38934;52.690;6.184;2023-07-09T05:38:09;14.82;;;9.98;;
53052;SDS011;38934;52.690;6.184;2023-07-09T05:40:35;11.45;;;9.65;;
53052;SDS011;38934;52.690;6.184;2023-07-09T05:43:01;10.50;;;7.82;;
53052;SDS011;38934;52.690;6.184;2023-07-09T05:45:27;12.60;;;9.77;;
53052;SDS011;38934;52.690;6.184;2023-07-09T05:47:52;15.80;;;10.45;;
53052;SDS011;38934;52.690;6.184;2023-07-09T05:50:18;14.45;;;10.30;;
53052;SDS011;38934;52.690;6.184;2023-07-09T05:52:43;13.00;;;10.15;;
53052;SDS011;38934;52.690;6.184;2023-07-09T05:55:09;14.32;;;9.10;;
53052;SDS011;38934;52.690;6.184;2023-07-09T05:57:35;13.65;;;10.38;;
53052;SDS011;38934;52.690;6.184;2023-07-09T06:00:00;12.38;;;10.25;;
53052;SDS011;38934;52.690;6.184;2023-07-09T06:02:26;15.85;;;11.32;;
53052;SDS011;38934;52.690;6.184;2023-07-09T06:04:51;15.43;;;10.00;;
53052;SDS011;38934;52.690;6.184;2023-07-09T06:07:17;12.93;;;9.77;;
53052;SDS011;38934;52.690;6.184;2023-07-09T06:09:43;13.23;;;9.65;;
53052;SDS011;38934;52.690;6.184;2023-07-09T06:12:11;12.48;;;9.93;;
53052;SDS011;38934;52.690;6.184;2023-07-09T06:14:36;14.75;;;9.35;;
53052;SDS011;38934;52.690;6.184;2023-07-09T06:17:02;14.27;;;10.27;;
53052;SDS011;38934;52.690;6.184;2023-07-09T06:19:28;12.50;;;9.50;;
53052;SDS011;38934;52.690;6.184;2023-07-09T06:21:54;13.00;;;9.25;;
53052;SDS011;38934;52.690;6.184;2023-07-09T06:24:21;14.13;;;10.35;;
53052;SDS011;38934;52.690;6.184;2023-07-09T06:26:47;11.82;;;9.68;;
53052;SDS011;38934;52.690;6.184;2023-07-09T06:29:12;11.88;;;9.02;;
53052;SDS011;38934;52.690;6.184;2023-07-09T06:31:38;11.88;;;10.20;;
53052;SDS011;38934;52.690;6.184;2023-07-09T06:34:05;16.70;;;10.10;;
53052;SDS011;38934;52.690;6.184;2023-07-09T06:36:34;13.80;;;9.95;;
53052;SDS011;38934;52.690;6.184;2023-07-09T06:39:00;14.68;;;9.50;;
53052;SDS011;38934;52.690;6.184;2023-07-09T06:41:26;13.95;;;10.60;;
53052;SDS011;38934;52.690;6.184;2023-07-09T06:43:52;13.18;;;9.95;;
53052;SDS011;38934;52.690;6.184;2023-07-09T06:46:18;13.30;;;9.40;;
53052;SDS011;38934;52.690;6.184;2023-07-09T06:48:44;12.48;;;10.13;;
53052;SDS011;38934;52.690;6.184;2023-07-09T06:51:10;13.40;;;10.25;;
53052;SDS011;38934;52.690;6.184;2023-07-09T06:53:36;12.18;;;9.23;;
53052;SDS011;38934;52.690;6.184;2023-07-09T06:56:02;14.82;;;9.65;;
53052;SDS011;38934;52.690;6.184;2023-07-09T06:58:29;21.38;;;9.32;;
53052;SDS011;38934;52.690;6.184;2023-07-09T07:00:57;13.63;;;9.27;;
53052;SDS011;38934;52.690;6.184;2023-07-09T07:03:23;13.93;;;9.23;;
53052;SDS011;38934;52.690;6.184;2023-07-09T07:05:49;10.88;;;8.57;;
53052;SDS011;38934;52.690;6.184;2023-07-09T07:08:19;14.43;;;9.10;;
53052;SDS011;38934;52.690;6.184;2023-07-09T07:10:47;16.05;;;8.80;;
53052;SDS011;38934;52.690;6.184;2023-07-09T07:13:13;10.25;;;8.00;;
53052;SDS011;38934;52.690;6.184;2023-07-09T07:15:39;10.85;;;8.40;;
53052;SDS011;38934;52.690;6.184;2023-07-09T07:18:06;11.85;;;8.25;;
53052;SDS011;38934;52.690;6.184;2023-07-09T07:20:32;12.23;;;7.57;;
53052;SDS011;38934;52.690;6.184;2023-07-09T07:22:58;10.40;;;7.43;;
53052;SDS011;38934;52.690;6.184;2023-07-09T07:25:24;9.50;;;7.65;;
53052;SDS011;38934;52.690;6.184;2023-07-09T07:27:50;10.30;;;6.90;;
53052;SDS011;38934;52.690;6.184;2023-07-09T07:30:16;14.02;;;6.95;;
53052;SDS011;38934;52.690;6.184;2023-07-09T07:32:44;9.90;;;6.95;;
53052;SDS011;38934;52.690;6.184;2023-07-09T07:35:11;9.00;;;7.30;;
53052;SDS011;38934;52.690;6.184;2023-07-09T07:37:38;12.25;;;7.00;;
53052;SDS011;38934;52.690;6.184;2023-07-09T07:40:07;8.07;;;6.70;;
53052;SDS011;38934;52.690;6.184;2023-07-09T07:42:33;8.82;;;7.05;;
53052;SDS011;38934;52.690;6.184;2023-07-09T07:44:59;8.88;;;6.50;;
53052;SDS011;38934;52.690;6.184;2023-07-09T07:47:25;9.25;;;6.57;;
53052;SDS011;38934;52.690;6.184;2023-07-09T07:49:54;10.90;;;7.07;;
53052;SDS011;38934;52.690;6.184;2023-07-09T07:52:20;8.52;;;6.75;;
53052;SDS011;38934;52.690;6.184;2023-07-09T07:54:46;10.63;;;7.25;;
53052;SDS011;38934;52.690;6.184;2023-07-09T07:57:12;10.52;;;6.75;;
53052;SDS011;38934;52.690;6.184;2023-07-09T07:59:41;10.13;;;7.10;;
53052;SDS011;38934;52.690;6.184;2023-07-09T08:02:08;12.00;;;6.90;;
53052;SDS011;38934;52.690;6.184;2023-07-09T08:04:36;9.55;;;7.38;;
53052;SDS011;38934;52.690;6.184;2023-07-09T08:07:03;11.20;;;7.40;;
53052;SDS011;38934;52.690;6.184;2023-07-09T08:09:29;9.75;;;7.95;;
53052;SDS011;38934;52.690;6.184;2023-07-09T08:11:54;8.95;;;7.38;;
53052;SDS011;38934;52.690;6.184;2023-07-09T08:14:20;11.50;;;7.43;;
53052;SDS011;38934;52.690;6.184;2023-07-09T08:16:46;8.73;;;6.68;;
53052;SDS011;38934;52.690;6.184;2023-07-09T08:19:12;11.68;;;7.45;;
53052;SDS011;38934;52.690;6.184;2023-07-09T08:21:38;9.70;;;6.50;;
53052;SDS011;38934;52.690;6.184;2023-07-09T08:24:04;9.95;;;6.75;;
53052;SDS011;38934;52.690;6.184;2023-07-09T08:26:30;10.40;;;6.88;;
53052;SDS011;38934;52.690;6.184;2023-07-09T08:28:56;11.98;;;7.18;;
53052;SDS011;38934;52.690;6.184;2023-07-09T08:31:22;9.65;;;6.25;;
53052;SDS011;38934;52.690;6.184;2023-07-09T08:33:48;9.25;;;6.85;;
53052;SDS011;38934;52.690;6.184;2023-07-09T08:36:13;10.75;;;6.60;;
53052;SDS011;38934;52.690;6.184;2023-07-09T08:38:39;10.35;;;5.85;;
53052;SDS011;38934;52.690;6.184;2023-07-09T08:41:20;11.20;;;5.95;;
53052;SDS011;38934;52.690;6.184;2023-07-09T08:44:01;9.48;;;5.95;;
53052;SDS011;38934;52.690;6.184;2023-07-09T08:48:56;8.75;;;6.00;;
53052;SDS011;38934;52.690;6.184;2023-07-09T08:51:34;9.50;;;6.30;;
53052;SDS011;38934;52.690;6.184;2023-07-09T08:54:03;9.10;;;5.70;;
53052;SDS011;38934;52.690;6.184;2023-07-09T08:56:36;10.88;;;6.35;;
53052;SDS011;38934;52.690;6.184;2023-07-09T08:59:02;9.40;;;6.38;;
53052;SDS011;38934;52.690;6.184;2023-07-09T09:01:34;9.52;;;6.72;;
53052;SDS011;38934;52.690;6.184;2023-07-09T09:04:13;8.23;;;6.47;;
53052;SDS011;38934;52.690;6.184;2023-07-09T09:06:46;10.05;;;6.10;;
53052;SDS011;38934;52.690;6.184;2023-07-09T09:12:18;8.15;;;5.60;;
53052;SDS011;38934;52.690;6.184;2023-07-09T09:14:56;8.70;;;6.45;;
53052;SDS011;38934;52.690;6.184;2023-07-09T09:17:29;7.38;;;6.13;;
53052;SDS011;38934;52.690;6.184;2023-07-09T09:20:01;16.95;;;6.43;;
53052;SDS011;38934;52.690;6.184;2023-07-09T09:22:35;38.85;;;7.97;;
53052;SDS011;38934;52.690;6.184;2023-07-09T09:25:04;8.57;;;6.30;;
53052;SDS011;38934;52.690;6.184;2023-07-09T09:27:46;8.98;;;6.65;;
53052;SDS011;38934;52.690;6.184;2023-07-09T09:30:13;10.52;;;5.53;;
53052;SDS011;38934;52.690;6.184;2023-07-09T09:32:46;11.18;;;6.70;;
53052;SDS011;38934;52.690;6.184;2023-07-09T09:35:18;8.18;;;5.85;;
53052;SDS011;38934;52.690;6.184;2023-07-09T09:37:52;9.13;;;6.25;;
53052;SDS011;38934;52.690;6.184;2023-07-09T09:40:19;7.55;;;5.40;;
53052;SDS011;38934;52.690;6.184;2023-07-09T09:42:48;9.80;;;5.80;;
53052;SDS011;38934;52.690;6.184;2023-07-09T09:45:15;9.65;;;5.72;;
53052;SDS011;38934;52.690;6.184;2023-07-09T09:47:44;6.72;;;5.32;;
53052;SDS011;38934;52.690;6.184;2023-07-09T09:50:16;8.07;;;5.82;;
53052;SDS011;38934;52.690;6.184;2023-07-09T09:52:44;7.45;;;5.22;;
53052;SDS011;38934;52.690;6.184;2023-07-09T09:55:23;8.68;;;6.10;;
53052;SDS011;38934;52.690;6.184;2023-07-09T09:57:53;10.63;;;6.22;;
53052;SDS011;38934;52.690;6.184;2023-07-09T10:00:21;9.45;;;6.93;;
53052;SDS011;38934;52.690;6.184;2023-07-09T10:02:50;9.17;;;6.47;;
53052;SDS011;38934;52.690;6.184;2023-07-09T10:05:21;7.97;;;6.30;;
53052;SDS011;38934;52.690;6.184;2023-07-09T10:08:17;9.15;;;6.30;;
53052;SDS011;38934;52.690;6.184;2023-07-09T10:10:55;9.18;;;6.70;;
53052;SDS011;38934;52.690;6.184;2023-07-09T10:13:30;9.18;;;6.65;;
53052;SDS011;38934;52.690;6.184;2023-07-09T10:18:39;11.02;;;7.45;;
53052;SDS011;38934;52.690;6.184;2023-07-09T10:22:28;10.13;;;6.97;;
53052;SDS011;38934;52.690;6.184;2023-07-09T10:30:00;9.65;;;6.32;;
53052;SDS011;38934;52.690;6.184;2023-07-09T10:33:02;9.15;;;6.15;;
53052;SDS011;38934;52.690;6.184;2023-07-09T10:35:40;8.40;;;6.60;;
53052;SDS011;38934;52.690;6.184;2023-07-09T10:41:17;9.52;;;6.57;;
53052;SDS011;38934;52.690;6.184;2023-07-09T10:43:46;8.55;;;6.10;;
53052;SDS011;38934;52.690;6.184;2023-07-09T10:46:26;9.65;;;6.70;;
53052;SDS011;38934;52.690;6.184;2023-07-09T10:49:00;9.25;;;5.40;;
53052;SDS011;38934;52.690;6.184;2023-07-09T10:51:32;6.95;;;5.22;;
53052;SDS011;38934;52.690;6.184;2023-07-09T10:57:00;9.27;;;5.10;;
53052;SDS011;38934;52.690;6.184;2023-07-09T10:59:32;8.85;;;5.03;;
53052;SDS011;38934;52.690;6.184;2023-07-09T11:02:11;7.50;;;5.50;;
53052;SDS011;38934;52.690;6.184;2023-07-09T11:05:01;8.82;;;5.40;;
53052;SDS011;38934;52.690;6.184;2023-07-09T11:10:19;7.90;;;5.28;;
53052;SDS011;38934;52.690;6.184;2023-07-09T11:13:00;8.63;;;4.78;;
53052;SDS011;38934;52.690;6.184;2023-07-09T11:15:37;10.23;;;5.10;;
53052;SDS011;38934;52.690;6.184;2023-07-09T11:18:07;7.53;;;4.80;;
53052;SDS011;38934;52.690;6.184;2023-07-09T11:23:18;9.13;;;5.38;;
53052;SDS011;38934;52.690;6.184;2023-07-09T11:26:00;11.45;;;5.35;;
53052;SDS011;38934;52.690;6.184;2023-07-09T11:31:05;7.38;;;4.88;;
53052;SDS011;38934;52.690;6.184;2023-07-09T11:33:32;10.10;;;5.85;;
53052;SDS011;38934;52.690;6.184;2023-07-09T11:36:08;9.82;;;5.00;;
53052;SDS011;38934;52.690;6.184;2023-07-09T11:38:43;10.13;;;5.53;;
53052;SDS011;38934;52.690;6.184;2023-07-09T11:44:10;7.95;;;4.93;;
53052;SDS011;38934;52.690;6.184;2023-07-09T11:47:22;9.07;;;5.10;;
53052;SDS011;38934;52.690;6.184;2023-07-09T11:52:25;6.50;;;4.78;;
53052;SDS011;38934;52.690;6.184;2023-07-09T11:54:52;7.82;;;5.65;;
53052;SDS011;38934;52.690;6.184;2023-07-09T11:57:19;8.52;;;5.20;;
53052;SDS011;38934;52.690;6.184;2023-07-09T11:59:45;6.57;;;4.65;;
53052;SDS011;38934;52.690;6.184;2023-07-09T12:02:20;6.72;;;4.95;;
53052;SDS011;38934;52.690;6.184;2023-07-09T12:04:50;6.00;;;4.63;;
53052;SDS011;38934;52.690;6.184;2023-07-09T12:07:17;8.23;;;4.87;;
53052;SDS011;38934;52.690;6.184;2023-07-09T12:09:49;7.13;;;4.50;;
53052;SDS011;38934;52.690;6.184;2023-07-09T12:12:20;7.78;;;4.93;;
53052;SDS011;38934;52.690;6.184;2023-07-09T12:14:48;10.48;;;4.63;;
53052;SDS011;38934;52.690;6.184;2023-07-09T12:17:14;6.68;;;4.10;;
53052;SDS011;38934;52.690;6.184;2023-07-09T12:19:39;5.78;;;4.30;;
53052;SDS011;38934;52.690;6.184;2023-07-09T12:22:06;7.05;;;4.25;;
53052;SDS011;38934;52.690;6.184;2023-07-09T12:24:44;6.63;;;4.32;;
53052;SDS011;38934;52.690;6.184;2023-07-09T12:29:44;7.93;;;5.13;;
53052;SDS011;38934;52.690;6.184;2023-07-09T12:32:11;6.53;;;4.20;;
53052;SDS011;38934;52.690;6.184;2023-07-09T12:34:39;7.68;;;4.32;;
53052;SDS011;38934;52.690;6.184;2023-07-09T12:37:05;7.88;;;4.95;;
53052;SDS011;38934;52.690;6.184;2023-07-09T12:39:37;8.60;;;4.50;;
53052;SDS011;38934;52.690;6.184;2023-07-09T12:42:03;5.25;;;4.32;;
53052;SDS011;38934;52.690;6.184;2023-07-09T12:44:33;8.02;;;4.60;;
53052;SDS011;38934;52.690;6.184;2023-07-09T12:47:01;7.60;;;4.32;;
53052;SDS011;38934;52.690;6.184;2023-07-09T12:49:28;7.45;;;4.47;;
53052;SDS011;38934;52.690;6.184;2023-07-09T12:51:59;7.18;;;4.57;;
53052;SDS011;38934;52.690;6.184;2023-07-09T12:54:30;7.30;;;3.85;;
53052;SDS011;38934;52.690;6.184;2023-07-09T12:56:56;7.50;;;4.30;;
53052;SDS011;38934;52.690;6.184;2023-07-09T12:59:25;6.55;;;4.10;;
53052;SDS011;38934;52.690;6.184;2023-07-09T13:04:50;7.38;;;4.70;;
53052;SDS011;38934;52.690;6.184;2023-07-09T13:07:38;10.48;;;4.45;;
53052;SDS011;38934;52.690;6.184;2023-07-09T13:12:41;6.78;;;4.45;;
53052;SDS011;38934;52.690;6.184;2023-07-09T13:17:56;9.18;;;4.63;;
53052;SDS011;38934;52.690;6.184;2023-07-09T13:20:23;6.82;;;4.75;;
53052;SDS011;38934;52.690;6.184;2023-07-09T13:22:49;6.20;;;4.78;;
53052;SDS011;38934;52.690;6.184;2023-07-09T13:25:15;7.55;;;4.88;;
53052;SDS011;38934;52.690;6.184;2023-07-09T13:27:41;8.93;;;4.88;;
53052;SDS011;38934;52.690;6.184;2023-07-09T13:30:08;8.40;;;4.90;;
53052;SDS011;38934;52.690;6.184;2023-07-09T13:32:34;11.13;;;6.13;;
53052;SDS011;38934;52.690;6.184;2023-07-09T13:34:59;10.45;;;5.35;;
53052;SDS011;38934;52.690;6.184;2023-07-09T13:37:27;8.98;;;4.97;;
53052;SDS011;38934;52.690;6.184;2023-07-09T13:39:53;7.47;;;4.85;;
53052;SDS011;38934;52.690;6.184;2023-07-09T13:42:18;6.70;;;4.78;;
53052;SDS011;38934;52.690;6.184;2023-07-09T13:44:45;8.70;;;4.60;;
53052;SDS011;38934;52.690;6.184;2023-07-09T13:47:12;8.38;;;4.50;;
53052;SDS011;38934;52.690;6.184;2023-07-09T13:49:41;8.27;;;4.78;;
53052;SDS011;38934;52.690;6.184;2023-07-09T13:52:08;7.10;;;4.65;;
53052;SDS011;38934;52.690;6.184;2023-07-09T13:54:44;5.25;;;4.28;;
53052;SDS011;38934;52.690;6.184;2023-07-09T13:57:13;9.25;;;4.43;;
53052;SDS011;38934;52.690;6.184;2023-07-09T13:59:45;6.00;;;4.47;;
53052;SDS011;38934;52.690;6.184;2023-07-09T14:04:54;7.60;;;4.03;;
53052;SDS011;38934;52.690;6.184;2023-07-09T14:07:23;8.68;;;4.00;;
53052;SDS011;38934;52.690;6.184;2023-07-09T14:09:51;6.22;;;3.67;;
53052;SDS011;38934;52.690;6.184;2023-07-09T14:12:17;8.73;;;3.80;;
53052;SDS011;38934;52.690;6.184;2023-07-09T14:14:43;6.65;;;4.00;;
53052;SDS011;38934;52.690;6.184;2023-07-09T14:17:11;8.30;;;4.30;;
53052;SDS011;38934;52.690;6.184;2023-07-09T14:19:37;7.47;;;4.00;;
53052;SDS011;38934;52.690;6.184;2023-07-09T14:22:04;7.10;;;3.80;;
53052;SDS011;38934;52.690;6.184;2023-07-09T14:24:46;9.43;;;4.30;;
53052;SDS011;38934;52.690;6.184;2023-07-09T14:27:11;7.45;;;4.32;;
53052;SDS011;38934;52.690;6.184;2023-07-09T14:29:37;9.13;;;4.30;;
53052;SDS011;38934;52.690;6.184;2023-07-09T14:32:03;8.95;;;4.13;;
53052;SDS011;38934;52.690;6.184;2023-07-09T14:34:32;8.30;;;4.50;;
53052;SDS011;38934;52.690;6.184;2023-07-09T14:36:58;12.65;;;5.05;;
53052;SDS011;38934;52.690;6.184;2023-07-09T14:39:26;11.80;;;4.78;;
53052;SDS011;38934;52.690;6.184;2023-07-09T14:41:53;11.73;;;5.10;;
53052;SDS011;38934;52.690;6.184;2023-07-09T14:44:26;11.20;;;5.00;;
53052;SDS011;38934;52.690;6.184;2023-07-09T14:46:57;11.48;;;5.32;;
53052;SDS011;38934;52.690;6.184;2023-07-09T14:49:24;11.50;;;4.72;;
53052;SDS011;38934;52.690;6.184;2023-07-09T14:51:51;9.38;;;4.85;;
53052;SDS011;38934;52.690;6.184;2023-07-09T14:54:18;13.07;;;4.95;;
53052;SDS011;38934;52.690;6.184;2023-07-09T14:56:46;9.68;;;4.78;;
53052;SDS011;38934;52.690;6.184;2023-07-09T14:59:12;8.15;;;5.05;;
53052;SDS011;38934;52.690;6.184;2023-07-09T15:01:38;8.85;;;5.05;;
53052;SDS011;38934;52.690;6.184;2023-07-09T15:06:50;9.00;;;5.63;;
53052;SDS011;38934;52.690;6.184;2023-07-09T15:09:16;7.22;;;5.30;;
53052;SDS011;38934;52.690;6.184;2023-07-09T15:11:57;11.05;;;5.30;;
53052;SDS011;38934;52.690;6.184;2023-07-09T15:14:24;9.35;;;5.10;;
53052;SDS011;38934;52.690;6.184;2023-07-09T15:16:51;7.32;;;5.25;;
53052;SDS011;38934;52.690;6.184;2023-07-09T15:19:19;10.23;;;5.38;;
53052;SDS011;38934;52.690;6.184;2023-07-09T15:21:47;11.05;;;5.43;;
53052;SDS011;38934;52.690;6.184;2023-07-09T15:26:51;9.43;;;5.68;;
53052;SDS011;38934;52.690;6.184;2023-07-09T15:29:19;6.95;;;5.47;;
53052;SDS011;38934;52.690;6.184;2023-07-09T15:31:46;9.75;;;6.25;;
53052;SDS011;38934;52.690;6.184;2023-07-09T15:34:12;8.60;;;6.32;;
53052;SDS011;38934;52.690;6.184;2023-07-09T15:36:40;11.48;;;5.95;;
53052;SDS011;38934;52.690;6.184;2023-07-09T15:39:12;10.77;;;5.75;;
53052;SDS011;38934;52.690;6.184;2023-07-09T15:41:38;8.82;;;5.70;;
53052;SDS011;38934;52.690;6.184;2023-07-09T15:44:04;11.80;;;5.70;;